Terminal Aerodrome Forecast
Issued by NWS Grand Junction, CO

Home | Current Version | Previous Version | Text Only | Print | Product List | Glossary On
Versions: 1 2 3 4 5 6 7 8 9 10 11 12 13
000
FTUS45 KGJT 302336
TAFGJT
TAF
KGJT 302336Z 0100/0124 30008KT P6SM OVC100
     FM010200 32004KT P6SM OVC100
     FM010700 10005KT P6SM BKN100
     FM011500 28005KT P6SM SCT120
     FM012000 31008KT P6SM FEW200=

USA.gov is the U.S. government's official web portal to all federal, state and local government web resources and services.